Time;durP1;ratioP1;P1;durP2;ratioP2;P2;SDS_P1;SDS_P2;PMS_P1;PMS_P2;Temp;Humidity;BMP_temperature;BMP_pressure;BME280_temperature;BME280_humidity;BME280_pressure;Samples;Min_cycle;Max_cycle;Signal;HPM_P1;HPM_P2
2023/08/11 00:00:22;;;;;;;0.28;0.25;;;;;;;13.90;100.00;100506.28;4821746;29;20485;-95
2023/08/11 00:02:50;;;;;;;0.10;0.10;;;;;;;13.88;100.00;100509.50;4822583;29;20057;-93
2023/08/11 00:05:17;;;;;;;0.25;0.25;;;;;;;13.80;100.00;100505.41;4822300;29;20049;-93
2023/08/11 00:07:50;;;;;;;0.43;0.43;;;;;;;13.83;100.00;100512.84;4832537;29;20053;-92
2023/08/11 00:10:19;;;;;;;0.28;0.28;;;;;;;13.74;100.00;100504.41;4824164;29;20410;-93
2023/08/11 00:12:45;;;;;;;0.20;0.20;;;;;;;13.80;100.00;100516.56;4818097;29;20129;-94
2023/08/11 00:15:12;;;;;;;0.15;0.15;;;;;;;13.73;100.00;100510.44;4809049;29;20046;-92
2023/08/11 00:17:38;;;;;;;0.10;0.10;;;;;;;13.76;100.00;100513.09;4814488;29;20045;-92
2023/08/11 00:20:06;;;;;;;0.10;0.10;;;;;;;13.67;100.00;100507.41;4806692;29;20151;-93
2023/08/11 00:22:32;;;;;;;0.52;0.50;;;;;;;13.65;100.00;100504.31;4822542;29;20089;-92
2023/08/11 00:24:58;;;;;;;0.40;0.40;;;;;;;13.63;100.00;100503.94;4822919;29;20046;-94
2023/08/11 00:27:23;;;;;;;0.20;0.20;;;;;;;13.58;100.00;100496.16;4816544;29;20379;-93
2023/08/11 00:29:49;;;;;;;0.20;0.20;;;;;;;13.59;100.00;100511.66;4810025;29;20050;-93
2023/08/11 00:32:14;;;;;;;0.47;0.30;;;;;;;13.47;100.00;100479.75;4824814;29;20511;-94
2023/08/11 00:34:40;;;;;;;0.00;0.00;;;;;;;13.58;100.00;100501.75;4808623;29;20346;-95
2023/08/11 00:37:06;;;;;;;0.15;0.15;;;;;;;13.58;100.00;100496.16;4807574;29;20637;-95
2023/08/11 00:39:32;;;;;;;0.30;0.28;;;;;;;13.48;100.00;100491.69;4838223;29;20590;-94
2023/08/11 00:41:57;;;;;;;0.20;0.20;;;;;;;13.40;100.00;100484.78;4829564;29;20175;-94
2023/08/11 00:44:23;;;;;;;0.35;0.35;;;;;;;13.49;100.00;100504.41;4819642;29;20141;-94
2023/08/11 00:46:49;;;;;;;0.15;0.15;;;;;;;13.44;100.00;100493.81;4833494;29;20050;-94
2023/08/11 00:49:15;;;;;;;0.38;0.38;;;;;;;13.46;100.00;100499.75;4840095;29;20840;-94
2023/08/11 00:51:41;;;;;;;0.10;0.10;;;;;;;13.39;100.00;100483.22;4841616;29;20046;-94
2023/08/11 00:54:08;;;;;;;0.20;0.20;;;;;;;13.34;100.00;100481.78;4824664;29;20051;-94
2023/08/11 00:56:34;;;;;;;0.30;0.30;;;;;;;13.27;100.00;100492.34;4823977;29;20046;-95
2023/08/11 00:59:00;;;;;;;0.22;0.22;;;;;;;13.28;100.00;100493.91;4825690;29;20106;-94
2023/08/11 01:01:26;;;;;;;0.00;0.00;;;;;;;13.24;100.00;100493.25;4856767;29;20066;-94
2023/08/11 01:03:52;;;;;;;0.38;0.38;;;;;;;13.18;100.00;100489.47;4812754;29;20106;-95
2023/08/11 01:06:47;;;;;;;0.95;0.50;;;;;;;13.16;100.00;100500.25;4844089;29;20510;-94
2023/08/11 01:09:28;;;;;;;0.00;0.00;;;;;;;13.03;100.00;100487.06;4839551;29;20046;-94
2023/08/11 01:12:27;;;;;;;0.20;0.20;;;;;;;13.07;100.00;100496.09;4825361;29;20046;-94
2023/08/11 01:15:14;;;;;;;0.40;0.40;;;;;;;13.08;100.00;100500.44;4820928;29;20053;-94
2023/08/11 01:17:40;;;;;;;0.40;0.40;;;;;;;13.03;100.00;100484.28;4813213;29;20103;-94
2023/08/11 01:20:10;;;;;;;0.30;0.30;;;;;;;13.14;100.00;100506.28;4837356;29;20042;-94
2023/08/11 01:22:39;;;;;;;0.00;0.00;;;;;;;13.05;100.00;100512.47;4840301;29;20046;-93
2023/08/11 01:25:07;;;;;;;0.00;0.00;;;;;;;12.99;100.00;100500.31;4823863;29;20090;-95
2023/08/11 01:27:44;;;;;;;0.75;0.60;;;;;;;12.90;100.00;100497.38;4823845;29;20046;-95
2023/08/11 01:30:13;;;;;;;0.10;0.10;;;;;;;12.96;100.00;100506.75;4823907;29;20056;-93
2023/08/11 01:32:39;;;;;;;0.88;0.80;;;;;;;12.90;100.00;100496.63;4824164;29;20045;-95
2023/08/11 01:35:06;;;;;;;0.10;0.10;;;;;;;12.86;100.00;100501.50;4823391;29;20076;-96
2023/08/11 01:37:32;;;;;;;0.20;0.20;;;;;;;12.92;100.00;100517.22;4839793;29;20049;-94
2023/08/11 01:39:58;;;;;;;0.00;0.00;;;;;;;12.93;100.00;100516.00;4824943;29;20070;-95
2023/08/11 01:42:25;;;;;;;0.10;0.10;;;;;;;12.87;100.00;100501.06;4825055;29;20050;-95
2023/08/11 01:44:51;;;;;;;0.40;0.40;;;;;;;12.96;100.00;100517.91;4839376;29;20106;-94
2023/08/11 01:47:18;;;;;;;0.47;0.38;;;;;;;12.96;100.00;100514.34;4826877;29;20065;-95
2023/08/11 01:49:44;;;;;;;0.20;0.20;;;;;;;12.91;100.00;100506.50;4840470;29;20126;-94
2023/08/11 01:52:10;;;;;;;5.05;0.77;;;;;;;12.93;100.00;100516.00;4840226;29;20054;-95
2023/08/11 01:54:36;;;;;;;0.25;0.25;;;;;;;12.93;100.00;100513.22;4837713;29;20051;-95
2023/08/11 01:57:02;;;;;;;0.08;0.08;;;;;;;12.91;100.00;100501.72;4828283;29;20136;-94
2023/08/11 01:59:28;;;;;;;0.08;0.08;;;;;;;12.97;100.00;100519.47;4838742;29;20042;-94
2023/08/11 02:01:54;;;;;;;0.65;0.65;;;;;;;12.95;100.00;100521.91;4824314;29;20482;-94
2023/08/11 02:04:20;;;;;;;0.90;0.85;;;;;;;12.91;100.00;100517.66;4827507;29;20069;-94
2023/08/11 02:06:46;;;;;;;0.45;0.45;;;;;;;12.85;100.00;100520.22;4823291;29;20515;-94
2023/08/11 02:09:12;;;;;;;0.28;0.28;;;;;;;12.87;100.00;100519.75;4801962;29;20047;-94
2023/08/11 02:11:38;;;;;;;0.10;0.10;;;;;;;12.87;100.00;100519.75;4803206;29;20058;-94
2023/08/11 02:14:05;;;;;;;3.17;0.95;;;;;;;12.84;100.00;100513.06;4782096;29;20045;-95
2023/08/11 02:16:32;;;;;;;0.35;0.35;;;;;;;12.79;100.00;100516.41;4800829;29;20054;-94
2023/08/11 02:18:58;;;;;;;0.15;0.15;;;;;;;12.76;100.00;100508.94;4814556;29;20058;-95
2023/08/11 02:21:26;;;;;;;0.20;0.20;;;;;;;12.78;100.00;100517.59;4803824;29;20043;-96
2023/08/11 02:23:51;;;;;;;0.40;0.40;;;;;;;12.70;100.00;100507.91;4816507;29;20515;-94
2023/08/11 02:26:17;;;;;;;0.30;0.30;;;;;;;12.75;100.00;100518.50;4799631;29;20053;-94
2023/08/11 02:28:42;;;;;;;0.38;0.38;;;;;;;12.65;100.00;100502.88;4802069;29;20138;-95
2023/08/11 02:31:08;;;;;;;0.05;0.03;;;;;;;12.67;100.00;100508.78;4817252;29;20161;-96
2023/08/11 02:33:37;;;;;;;0.15;0.15;;;;;;;12.69;100.00;100522.28;4802995;29;20050;-92
2023/08/11 02:36:04;;;;;;;0.00;0.00;;;;;;;12.64;100.00;100509.66;4801953;29;20048;-94
2023/08/11 02:38:31;;;;;;;0.30;0.20;;;;;;;12.67;100.00;100516.34;4775859;29;20481;-93
2023/08/11 02:40:56;;;;;;;0.63;0.63;;;;;;;12.59;100.00;100510.97;4789851;29;20558;-92
2023/08/11 02:43:22;;;;;;;0.20;0.20;;;;;;;12.58;100.00;100508.63;4804938;29;20121;-95
2023/08/11 02:45:47;;;;;;;0.43;0.40;;;;;;;12.54;100.00;100508.72;4804679;29;20125;-93
2023/08/11 02:48:13;;;;;;;0.52;0.47;;;;;;;12.55;100.00;100513.09;4789622;29;20061;-93
2023/08/11 02:50:38;;;;;;;0.15;0.08;;;;;;;12.47;100.00;100502.56;4803129;29;20141;-94
2023/08/11 02:53:04;;;;;;;4.50;1.08;;;;;;;12.50;100.00;100512.81;4819043;29;20071;-95
2023/08/11 02:55:30;;;;;;;0.45;0.30;;;;;;;12.45;100.00;100510.59;4783728;29;20081;-94
2023/08/11 02:57:55;;;;;;;0.20;0.20;;;;;;;12.45;100.00;100521.72;4834658;29;20059;-94
2023/08/11 03:00:21;;;;;;;0.32;0.32;;;;;;;12.42;100.00;100531.72;4802352;29;20115;-93
2023/08/11 03:02:47;;;;;;;0.15;0.15;;;;;;;12.28;100.00;100511.84;4810065;29;20116;-95
2023/08/11 03:05:14;;;;;;;2.30;0.80;;;;;;;12.30;100.00;100521.31;4833661;29;20062;-94
2023/08/11 03:07:43;;;;;;;1.58;1.13;;;;;;;12.22;100.00;100513.56;4834725;29;20099;-93
2023/08/11 03:10:09;;;;;;;0.10;0.10;;;;;;;12.27;100.00;100522.19;4809995;29;20581;-93
2023/08/11 03:12:36;;;;;;;0.05;0.05;;;;;;;12.11;100.00;100508.28;4814343;29;20050;-94
2023/08/11 03:15:06;;;;;;;0.68;0.68;;;;;;;12.14;100.00;100510.19;4837774;29;20049;-95
2023/08/11 03:17:33;;;;;;;0.32;0.32;;;;;;;12.05;100.00;100516.38;4835241;29;20046;-94
2023/08/11 03:19:59;;;;;;;0.30;0.20;;;;;;;11.94;100.00;100501.19;4808992;29;20042;-94
2023/08/11 03:22:25;;;;;;;0.10;0.10;;;;;;;11.93;100.00;100511.50;4837627;29;20085;-94
2023/08/11 03:24:51;;;;;;;0.03;0.03;;;;;;;11.97;100.00;100509.44;4833800;29;20031;-94
2023/08/11 03:27:18;;;;;;;0.13;0.13;;;;;;;11.96;100.00;100519.00;4821847;29;20049;-94
2023/08/11 03:29:44;;;;;;;0.30;0.30;;;;;;;11.93;100.00;100508.72;4819355;29;20154;-94
2023/08/11 03:32:10;;;;;;;0.20;0.20;;;;;;;11.96;100.00;100518.22;4828531;29;20077;-94
2023/08/11 03:34:37;;;;;;;0.30;0.28;;;;;;;11.85;100.00;100507.34;4818767;29;20518;-94
2023/08/11 03:37:03;;;;;;;0.10;0.10;;;;;;;11.80;100.00;100502.31;4833967;29;20095;-93
2023/08/11 03:39:29;;;;;;;0.20;0.20;;;;;;;11.81;100.00;100517.75;4846863;29;20046;-93
2023/08/11 03:41:57;;;;;;;1.00;0.95;;;;;;;11.84;100.00;100514.13;4831542;29;20041;-94
2023/08/11 03:44:22;;;;;;;0.00;0.00;;;;;;;11.89;100.00;100524.72;4809473;29;20541;-94
2023/08/11 03:46:49;;;;;;;0.38;0.38;;;;;;;11.89;100.00;100530.28;4832489;29;20133;-94
2023/08/11 03:49:15;;;;;;;0.17;0.17;;;;;;;11.79;100.00;100514.66;4825350;29;20141;-95
2023/08/11 03:51:41;;;;;;;0.00;0.00;;;;;;;11.87;100.00;100521.59;4816363;29;20494;-94
2023/08/11 03:54:07;;;;;;;0.30;0.30;;;;;;;11.90;100.00;100526.28;4823240;29;20050;-94
2023/08/11 03:56:35;;;;;;;0.35;0.35;;;;;;;11.93;100.00;100511.50;4822497;29;20133;-94
2023/08/11 03:59:01;;;;;;;0.15;0.15;;;;;;;11.89;100.00;100512.84;4826848;29;20042;-94
2023/08/11 04:01:28;;;;;;;1.88;0.95;;;;;;;11.98;100.00;100527.69;4814452;29;20050;-94
2023/08/11 04:03:53;;;;;;;0.10;0.10;;;;;;;11.94;100.00;100515.88;4824989;29;20050;-93
2023/08/11 04:06:19;;;;;;;0.55;0.35;;;;;;;12.01;100.00;100510.13;4821986;29;20460;-93
2023/08/11 04:08:44;;;;;;;0.88;0.85;;;;;;;12.10;100.00;100524.19;4808709;29;20047;-94
2023/08/11 04:11:11;;;;;;;0.30;0.28;;;;;;;11.98;100.00;100510.22;4832239;29;20495;-94
2023/08/11 04:13:36;;;;;;;0.82;0.65;;;;;;;12.07;100.00;100529.84;4840995;29;20084;-94
2023/08/11 04:16:02;;;;;;;0.38;0.38;;;;;;;12.02;100.00;100528.38;4814387;29;20050;-95
2023/08/11 04:18:28;;;;;;;0.80;0.77;;;;;;;12.05;100.00;100540.63;4839652;29;20042;-94
2023/08/11 04:20:54;;;;;;;0.30;0.30;;;;;;;11.90;100.00;100529.06;4821504;29;20460;-94
2023/08/11 04:23:20;;;;;;;0.73;0.55;;;;;;;11.87;100.00;100538.28;4820500;29;20061;-94
2023/08/11 04:25:46;;;;;;;0.10;0.10;;;;;;;11.94;100.00;100549.22;4839936;29;20038;-95
2023/08/11 04:28:12;;;;;;;0.32;0.32;;;;;;;11.89;100.00;100535.84;4821717;29;20074;-93
2023/08/11 04:30:38;;;;;;;1.33;0.50;;;;;;;11.93;100.00;100541.34;4822109;29;20157;-95
2023/08/11 04:33:05;;;;;;;0.20;0.20;;;;;;;11.96;100.00;100540.47;4837665;29;20153;-93
2023/08/11 04:35:33;;;;;;;0.10;0.10;;;;;;;12.00;100.00;100533.59;4829482;29;20047;-95
2023/08/11 04:38:00;;;;;;;0.60;0.52;;;;;;;11.94;100.00;100545.66;4823641;29;20046;-95
2023/08/11 04:40:28;;;;;;;0.00;0.00;;;;;;;11.98;100.00;100544.34;4822137;29;20415;-93
2023/08/11 04:42:56;;;;;;;0.20;0.20;;;;;;;11.93;100.00;100550.44;4854118;29;20045;-93
2023/08/11 04:45:28;;;;;;;1.00;0.57;;;;;;;11.69;100.00;100535.88;4810950;29;20042;-95
2023/08/11 04:47:54;;;;;;;0.65;0.63;;;;;;;11.70;100.00;100550.56;4825036;29;20112;-93
2023/08/11 04:50:20;;;;;;;0.25;0.25;;;;;;;11.76;100.00;100564.75;4812324;29;20046;-93
2023/08/11 04:52:49;;;;;;;1.65;0.32;;;;;;;11.85;100.00;100565.72;4828160;29;20127;-93
2023/08/11 04:55:15;;;;;;;0.95;0.68;;;;;;;11.84;100.00;100538.38;4823865;29;20400;-94
2023/08/11 04:57:41;;;;;;;0.20;0.20;;;;;;;12.08;100.00;100571.13;4827635;29;20037;-93
2023/08/11 05:00:13;;;;;;;0.10;0.10;;;;;;;12.15;100.00;100561.81;4808301;29;20416;-94
2023/08/11 05:02:41;;;;;;;0.77;0.45;;;;;;;12.25;100.00;100562.78;4827669;29;20128;-94
2023/08/11 05:05:08;;;;;;;0.25;0.25;;;;;;;12.25;100.00;100565.56;4813229;29;20137;-95
2023/08/11 05:07:34;;;;;;;0.13;0.13;;;;;;;12.37;100.00;100573.22;4842202;29;20469;-94
2023/08/11 05:09:59;;;;;;;0.40;0.40;;;;;;;12.52;100.00;100582.75;4839312;29;20142;-95
2023/08/11 05:12:25;;;;;;;0.55;0.55;;;;;;;12.57;100.00;100573.88;4834153;29;20062;-94
2023/08/11 05:14:51;;;;;;;0.05;0.05;;;;;;;12.73;100.00;100587.75;4824778;29;20053;-93
2023/08/11 05:17:16;;;;;;;0.22;0.22;;;;;;;12.77;100.00;100573.75;4841201;29;20044;-92
2023/08/11 05:19:42;;;;;;;0.20;0.20;;;;;;;12.86;100.00;100580.22;4812581;29;20042;-93
2023/08/11 05:22:07;;;;;;;0.43;0.30;;;;;;;13.01;100.00;100584.19;4839670;29;20406;-91
2023/08/11 05:24:33;;;;;;;0.38;0.38;;;;;;;13.27;100.00;100592.63;4824330;29;20053;-93
2023/08/11 05:26:58;;;;;;;0.17;0.17;;;;;;;13.50;100.00;100586.81;4830008;29;20034;-93
2023/08/11 05:29:24;;;;;;;0.57;0.35;;;;;;;13.78;100.00;100599.88;4839884;29;20454;-93
2023/08/11 05:31:50;;;;;;;0.60;0.60;;;;;;;13.92;100.00;100579.13;4810990;29;20430;-93
2023/08/11 05:34:15;;;;;;;0.08;0.08;;;;;;;14.26;100.00;100600.75;4829370;29;20061;-92
2023/08/11 05:36:41;;;;;;;0.32;0.32;;;;;;;14.40;100.00;100594.72;4842145;29;20061;-93
2023/08/11 05:39:09;;;;;;;0.40;0.32;;;;;;;14.66;100.00;100596.22;4857641;29;20038;-93
2023/08/11 05:41:34;;;;;;;0.20;0.20;;;;;;;14.79;100.00;100588.59;4825775;29;20081;-93
2023/08/11 05:44:00;;;;;;;0.43;0.30;;;;;;;14.97;100.00;100589.94;4832736;29;20084;-93
2023/08/11 05:46:26;;;;;;;0.63;0.60;;;;;;;15.13;100.00;100598.13;4843468;29;20045;-92
2023/08/11 05:48:51;;;;;;;0.63;0.57;;;;;;;15.28;100.00;100590.81;4812627;29;20089;-93
2023/08/11 05:51:17;;;;;;;0.22;0.22;;;;;;;15.48;100.00;100591.25;4855499;29;20049;-95
2023/08/11 05:53:42;;;;;;;1.10;0.68;;;;;;;15.65;100.00;100591.84;4812684;29;20526;-93
2023/08/11 05:56:08;;;;;;;0.20;0.20;;;;;;;15.89;100.00;100589.31;4836895;29;20057;-93
2023/08/11 05:58:34;;;;;;;0.30;0.15;;;;;;;16.18;100.00;100598.09;4834701;29;20055;-93
2023/08/11 06:01:01;;;;;;;1.17;0.75;;;;;;;16.48;100.00;100597.25;4841506;29;20080;-92
2023/08/11 06:03:30;;;;;;;0.30;0.30;;;;;;;16.69;100.00;100601.97;4814244;29;20055;-93
2023/08/11 06:06:04;;;;;;;0.40;0.40;;;;;;;16.96;100.00;100609.63;4847656;29;20082;-92
2023/08/11 06:08:30;;;;;;;0.20;0.20;;;;;;;17.17;100.00;100603.06;4836560;29;20065;-93
2023/08/11 06:10:56;;;;;;;0.30;0.30;;;;;;;17.26;100.00;100610.69;4861208;29;20041;-94
2023/08/11 06:13:22;;;;;;;1.35;1.15;;;;;;;17.46;100.00;100608.16;4844868;29;20037;-93
2023/08/11 06:15:51;;;;;;;0.30;0.30;;;;;;;17.58;100.00;100598.81;4840157;29;20054;-93
2023/08/11 06:18:17;;;;;;;0.60;0.60;;;;;;;17.87;100.00;100603.09;4840161;29;20045;-94
2023/08/11 06:20:43;;;;;;;0.43;0.43;;;;;;;18.09;100.00;100610.00;4829259;29;20614;-93
2023/08/11 06:23:09;;;;;;;0.35;0.32;;;;;;;18.29;100.00;100611.47;4824297;29;20038;-93
2023/08/11 06:25:35;;;;;;;1.15;0.60;;;;;;;18.42;100.00;100618.41;4854314;29;20038;-92
2023/08/11 06:28:01;;;;;;;0.50;0.50;;;;;;;18.41;100.00;100625.28;4840116;29;20466;-96
2023/08/11 06:30:28;;;;;;;0.70;0.65;;;;;;;18.72;100.00;100622.16;4839268;29;20069;-91
2023/08/11 06:32:54;;;;;;;0.20;0.20;;;;;;;18.79;100.00;100615.41;4823864;29;20046;-93
2023/08/11 06:35:20;;;;;;;0.13;0.13;;;;;;;18.91;100.00;100611.56;4813768;29;20183;-93
2023/08/11 06:37:46;;;;;;;0.82;0.80;;;;;;;18.99;100.00;100636.00;4835672;29;20033;-93
2023/08/11 06:40:13;;;;;;;0.55;0.55;;;;;;;19.24;100.00;100622.69;4853436;29;20080;-93
2023/08/11 06:42:39;;;;;;;0.10;0.10;;;;;;;19.59;100.00;100631.25;4827044;29;20042;-93
2023/08/11 06:45:08;;;;;;;0.15;0.15;;;;;;;19.83;100.00;100624.28;4824516;29;20057;-93
2023/08/11 06:47:34;;;;;;;0.43;0.30;;;;;;;20.15;100.00;100628.09;4823296;29;20099;-93
2023/08/11 06:50:00;;;;;;;0.40;0.40;;;;;;;20.26;100.00;100621.88;4811183;29;20051;-93
2023/08/11 06:52:26;;;;;;;0.20;0.20;;;;;;;20.37;100.00;100634.13;4823410;29;20527;-93
2023/08/11 06:54:52;;;;;;;0.88;0.82;;;;;;;20.31;100.00;100640.91;4829837;29;20046;-93
2023/08/11 06:57:18;;;;;;;0.73;0.73;;;;;;;20.05;95.93;100632.31;4850389;29;20132;-93
2023/08/11 06:59:44;;;;;;;0.25;0.25;;;;;;;20.30;100.00;100633.75;4839323;29;20064;-93
2023/08/11 07:02:09;;;;;;;0.55;0.55;;;;;;;20.77;100.00;100621.31;4837532;29;20482;-92
2023/08/11 07:04:35;;;;;;;0.15;0.15;;;;;;;20.66;88.36;100643.72;4822589;29;20061;-94
2023/08/11 07:07:01;;;;;;;0.20;0.20;;;;;;;20.85;90.49;100650.63;4838475;29;20060;-93
2023/08/11 07:09:26;;;;;;;0.22;0.22;;;;;;;20.72;87.81;100644.56;4828863;29;20104;-93
2023/08/11 07:11:52;;;;;;;0.80;0.57;;;;;;;21.09;87.95;100641.94;4827326;29;20062;-94
2023/08/11 07:14:18;;;;;;;0.20;0.20;;;;;;;21.09;82.06;100631.44;4816624;29;20061;-94
2023/08/11 07:16:43;;;;;;;0.50;0.50;;;;;;;21.15;84.25;100637.19;4810867;29;20049;-93
2023/08/11 07:19:09;;;;;;;1.25;0.90;;;;;;;21.25;84.97;100653.47;4832412;29;20046;-95
2023/08/11 07:21:34;;;;;;;0.17;0.17;;;;;;;21.23;85.23;100641.13;4827296;29;20493;-93
2023/08/11 07:24:00;;;;;;;1.65;0.70;;;;;;;21.22;82.89;100651.63;4858169;29;20050;-94
2023/08/11 07:26:25;;;;;;;0.20;0.20;;;;;;;21.19;79.18;100652.59;4829242;29;20049;-94
2023/08/11 07:28:52;;;;;;;0.93;0.70;;;;;;;21.35;79.25;100659.75;4832912;29;20046;-93
2023/08/11 07:31:17;;;;;;;0.47;0.40;;;;;;;21.63;80.68;100634.63;4840523;29;20435;-94
2023/08/11 07:33:43;;;;;;;0.73;0.73;;;;;;;22.20;80.18;100660.03;4858731;29;20046;-94
2023/08/11 07:36:09;;;;;;;0.30;0.30;;;;;;;22.17;73.90;100649.72;4841371;29;20512;-94
2023/08/11 07:38:38;;;;;;;0.52;0.38;;;;;;;22.37;75.62;100646.00;4819500;29;20061;-94
2023/08/11 07:41:03;;;;;;;1.38;0.60;;;;;;;22.62;72.54;100656.44;4854965;29;20030;-95
2023/08/11 07:43:29;;;;;;;0.10;0.10;;;;;;;22.88;66.13;100651.47;4843248;29;20054;-94
2023/08/11 07:45:55;;;;;;;0.22;0.22;;;;;;;22.83;66.17;100642.94;4812329;29;20051;-94
2023/08/11 07:48:20;;;;;;;0.30;0.30;;;;;;;23.22;65.05;100650.28;4824588;29;20125;-93
2023/08/11 07:50:46;;;;;;;0.30;0.25;;;;;;;23.36;62.37;100659.09;4811183;29;20111;-95
2023/08/11 07:53:11;;;;;;;0.45;0.45;;;;;;;23.51;63.34;100651.16;4830041;29;20050;-94
2023/08/11 07:55:37;;;;;;;0.28;0.28;;;;;;;23.64;61.40;100648.63;4841714;29;20038;-95
2023/08/11 07:58:03;;;;;;;1.50;0.90;;;;;;;23.58;60.34;100661.97;4832511;29;20058;-95
2023/08/11 08:00:29;;;;;;;0.30;0.30;;;;;;;23.49;59.56;100659.41;4837933;29;20123;-93
2023/08/11 08:02:55;;;;;;;0.40;0.40;;;;;;;23.12;50.09;100648.22;4838832;29;20514;-94
2023/08/11 08:05:21;;;;;;;0.28;0.28;;;;;;;23.14;52.33;100652.06;4820260;29;20137;-94
2023/08/11 08:07:47;;;;;;;0.20;0.20;;;;;;;23.54;50.70;100661.44;4823551;29;20050;-94
2023/08/11 08:10:14;;;;;;;1.20;1.20;;;;;;;23.51;50.90;100677.41;4853980;29;20098;-94
2023/08/11 08:12:42;;;;;;;1.58;0.40;;;;;;;23.20;52.63;100664.19;4830573;29;20430;-93
2023/08/11 08:15:09;;;;;;;0.10;0.10;;;;;;;23.48;53.96;100672.00;4821660;29;20046;-95
2023/08/11 08:17:35;;;;;;;0.45;0.45;;;;;;;23.90;55.09;100674.63;4822190;29;20026;-95
2023/08/11 08:20:02;;;;;;;0.65;0.43;;;;;;;24.21;51.25;100678.53;4837786;29;20046;-94
2023/08/11 08:22:27;;;;;;;0.85;0.70;;;;;;;24.43;51.85;100664.31;4821966;29;20061;-93
2023/08/11 08:24:53;;;;;;;0.30;0.30;;;;;;;24.41;49.87;100661.25;4853671;29;20034;-95
2023/08/11 08:27:24;;;;;;;0.30;0.20;;;;;;;24.59;49.84;100678.47;4834823;29;20050;-94
2023/08/11 08:29:53;;;;;;;1.40;0.45;;;;;;;24.21;48.86;100667.97;4838635;29;20064;-94
2023/08/11 08:32:21;;;;;;;0.20;0.20;;;;;;;24.01;51.32;100676.72;4824293;29;20053;-94
2023/08/11 08:34:48;;;;;;;0.95;0.80;;;;;;;24.13;50.50;100672.59;4839363;29;20050;-94
2023/08/11 08:37:15;;;;;;;0.20;0.20;;;;;;;24.24;50.59;100680.34;4839601;29;20482;-94
2023/08/11 08:39:41;;;;;;;0.35;0.35;;;;;;;24.65;50.23;100664.28;4821919;29;20145;-94
2023/08/11 08:42:07;;;;;;;0.52;0.52;;;;;;;24.82;47.93;100659.34;4834535;29;20038;-96
2023/08/11 08:44:35;;;;;;;0.68;0.50;;;;;;;24.97;48.64;100653.38;4834111;29;20065;-95
2023/08/11 08:47:05;;;;;;;0.47;0.38;;;;;;;24.91;47.68;100684.59;4821455;29;20046;-95
2023/08/11 08:49:30;;;;;;;0.40;0.40;;;;;;;24.73;48.42;100661.69;4827397;29;20366;-94
2023/08/11 08:52:00;;;;;;;1.10;0.90;;;;;;;25.00;46.39;100658.78;4837850;29;20050;-94
2023/08/11 08:54:27;;;;;;;0.50;0.50;;;;;;;25.00;47.15;100666.50;4810052;29;20103;-93
2023/08/11 08:56:54;;;;;;;0.17;0.17;;;;;;;25.25;46.04;100690.91;4841678;29;20029;-93
2023/08/11 08:59:20;;;;;;;0.68;0.32;;;;;;;25.18;44.53;100673.66;4856447;29;20046;-91
2023/08/11 09:01:48;;;;;;;0.20;0.20;;;;;;;25.19;43.93;100675.22;4839666;29;20054;-95
2023/08/11 09:04:14;;;;;;;2.35;0.75;;;;;;;25.15;44.76;100680.41;4839318;29;20222;-95
2023/08/11 09:06:41;;;;;;;0.52;0.52;;;;;;;25.39;42.54;100672.00;4792748;29;20050;-95
2023/08/11 09:09:08;;;;;;;0.47;0.47;;;;;;;25.62;43.23;100672.66;4798515;29;20065;-95
2023/08/11 09:11:34;;;;;;;0.30;0.30;;;;;;;25.84;43.72;100658.31;4830959;29;20050;-93
2023/08/11 09:14:07;;;;;;;0.52;0.52;;;;;;;26.11;42.81;100673.59;4806809;29;20043;-93
2023/08/11 09:16:37;;;;;;;0.20;0.20;;;;;;;26.26;41.13;100639.88;4812664;29;20110;-92
2023/08/11 09:19:12;;;;;;;0.75;0.32;;;;;;;26.55;42.00;100667.50;4816860;29;20102;-93
2023/08/11 09:21:40;;;;;;;0.30;0.30;;;;;;;26.47;39.96;100660.88;4817143;29;20387;-92
2023/08/11 09:24:18;;;;;;;0.38;0.38;;;;;;;26.31;39.18;100647.59;4815740;29;20075;-93
2023/08/11 09:26:52;;;;;;;0.25;0.25;;;;;;;26.44;38.80;100651.34;4835449;29;20383;-92
2023/08/11 09:29:18;;;;;;;0.50;0.30;;;;;;;26.49;35.87;100668.88;4835488;29;20054;-92
2023/08/11 09:31:49;;;;;;;0.68;0.65;;;;;;;26.27;37.24;100664.16;4803566;29;20050;-92
2023/08/11 09:34:17;;;;;;;0.17;0.17;;;;;;;26.35;37.33;100659.44;4801311;29;20046;-93
2023/08/11 09:36:46;;;;;;;0.52;0.50;;;;;;;26.43;38.30;100677.47;4803744;29;20053;-94
2023/08/11 09:39:15;;;;;;;0.63;0.40;;;;;;;26.57;37.20;100669.84;4834387;29;20272;-95
2023/08/11 09:41:47;;;;;;;0.40;0.40;;;;;;;26.89;38.04;100671.53;4821136;29;20050;-95
2023/08/11 09:44:17;;;;;;;0.57;0.57;;;;;;;26.59;38.65;100667.97;4804622;29;20137;-94
2023/08/11 09:46:44;;;;;;;0.30;0.30;;;;;;;26.73;38.56;100663.19;4805337;29;20134;-94
2023/08/11 09:49:10;;;;;;;0.55;0.22;;;;;;;26.62;36.78;100666.91;4835870;29;20061;-96
2023/08/11 09:51:36;;;;;;;0.50;0.28;;;;;;;26.59;36.02;100658.66;4820457;29;20054;-94
2023/08/11 09:54:06;;;;;;;0.10;0.10;;;;;;;26.86;38.19;100661.22;4836272;29;20041;-94
2023/08/11 09:56:34;;;;;;;0.25;0.25;;;;;;;26.87;36.73;100665.63;4806160;29;20046;-94
2023/08/11 09:59:03;;;;;;;0.47;0.47;;;;;;;27.11;38.03;100666.88;4820229;29;20073;-93
2023/08/11 10:01:32;;;;;;;0.57;0.57;;;;;;;27.07;36.50;100638.72;4806148;29;20563;-93
2023/08/11 10:03:59;;;;;;;0.13;0.13;;;;;;;27.38;35.66;100659.28;4820549;29;20054;-95
2023/08/11 10:06:27;;;;;;;0.20;0.20;;;;;;;27.20;35.75;100664.44;4835673;29;20083;-94
2023/08/11 10:08:54;;;;;;;0.10;0.10;;;;;;;27.09;35.78;100658.88;4821233;29;20046;-95
2023/08/11 10:11:20;;;;;;;0.30;0.30;;;;;;;27.41;34.68;100656.13;4844259;29;20069;-95
2023/08/11 10:13:48;;;;;;;0.20;0.20;;;;;;;27.71;35.79;100655.94;4775815;29;20070;-95
2023/08/11 10:16:14;;;;;;;0.73;0.57;;;;;;;27.67;36.47;100642.00;4776858;29;20515;-95
2023/08/11 10:18:42;;;;;;;0.45;0.40;;;;;;;27.94;35.77;100656.38;4802343;29;20133;-95
2023/08/11 10:21:07;;;;;;;0.85;0.70;;;;;;;28.29;35.19;100664.59;4813785;29;20046;-95
2023/08/11 10:23:34;;;;;;;0.20;0.20;;;;;;;28.45;35.20;100660.69;4805373;29;20440;-95
2023/08/11 10:25:59;;;;;;;0.20;0.20;;;;;;;28.16;34.91;100656.00;4835072;29;20038;-96
2023/08/11 10:28:25;;;;;;;0.28;0.28;;;;;;;28.00;34.51;100659.88;4817062;29;20055;-95
2023/08/11 10:30:55;;;;;;;0.50;0.50;;;;;;;28.02;32.91;100668.69;4829098;29;20042;-95
2023/08/11 10:33:21;;;;;;;0.52;0.52;;;;;;;27.97;33.46;100656.06;4805387;29;20073;-94
2023/08/11 10:35:46;;;;;;;0.68;0.55;;;;;;;28.12;34.62;100666.97;4801806;29;20267;-95
2023/08/11 10:38:12;;;;;;;1.00;0.40;;;;;;;28.31;34.02;100661.97;4822407;29;20050;-95
2023/08/11 10:40:39;;;;;;;0.52;0.50;;;;;;;28.35;32.95;100662.41;4804634;29;20533;-95
2023/08/11 10:43:09;;;;;;;0.65;0.57;;;;;;;28.11;32.14;100648.31;4805130;29;20043;-94
2023/08/11 10:45:39;;;;;;;0.55;0.40;;;;;;;28.07;32.22;100650.69;4812419;29;20055;-93
2023/08/11 10:48:09;;;;;;;0.90;0.40;;;;;;;27.69;32.50;100659.34;4814559;29;20387;-95
2023/08/11 10:50:38;;;;;;;0.35;0.35;;;;;;;27.44;34.24;100652.19;4829967;29;20119;-94
2023/08/11 10:53:27;;;;;;;0.35;0.25;;;;;;;27.72;34.37;100651.78;4821867;29;20117;-95
2023/08/11 10:55:58;;;;;;;0.40;0.40;;;;;;;27.55;34.88;100648.41;4804846;29;20058;-96
2023/08/11 10:58:24;;;;;;;0.13;0.13;;;;;;;27.78;35.03;100653.22;4826789;29;20042;-96
2023/08/11 11:00:50;;;;;;;0.10;0.10;;;;;;;27.86;34.59;100644.84;4834373;29;20526;-96
2023/08/11 11:03:15;;;;;;;0.10;0.10;;;;;;;28.19;34.63;100643.50;4824110;29;20063;-94
2023/08/11 11:05:44;;;;;;;0.10;0.10;;;;;;;28.22;33.45;100626.09;4819336;29;20061;-95
2023/08/11 11:08:10;;;;;;;0.22;0.22;;;;;;;28.26;33.43;100648.59;4835491;29;20498;-95
2023/08/11 11:10:35;;;;;;;0.93;0.40;;;;;;;27.99;33.49;100636.31;4822083;29;20034;-95
2023/08/11 11:13:01;;;;;;;0.57;0.57;;;;;;;28.15;33.30;100643.06;4814225;29;20061;-94
2023/08/11 11:15:29;;;;;;;0.40;0.40;;;;;;;28.31;33.28;100650.56;4801325;29;20508;-96
2023/08/11 11:17:55;;;;;;;0.55;0.52;;;;;;;28.27;31.92;100656.59;4814902;29;20099;-95